sensor_id;sensor_type;location;lat;lon;timestamp;temperature;humidity
59977;DHT22;45837;51.076;3.578;2023-04-29T00:00:06;20.40;54.30
59977;DHT22;45837;51.076;3.578;2023-04-29T00:02:39;20.50;54.10
59977;DHT22;45837;51.076;3.578;2023-04-29T00:05:05;20.40;54.60
59977;DHT22;45837;51.076;3.578;2023-04-29T00:07:30;20.50;54.30
59977;DHT22;45837;51.076;3.578;2023-04-29T00:09:59;20.50;54.20
59977;DHT22;45837;51.076;3.578;2023-04-29T00:12:25;20.40;54.50
59977;DHT22;45837;51.076;3.578;2023-04-29T00:14:50;18.50;53.30
59977;DHT22;45837;51.076;3.578;2023-04-29T00:17:16;20.40;54.40
59977;DHT22;45837;51.076;3.578;2023-04-29T00:19:42;20.40;54.20
59977;DHT22;45837;51.076;3.578;2023-04-29T00:22:08;20.40;54.10
59977;DHT22;45837;51.076;3.578;2023-04-29T00:24:34;20.40;54.50
59977;DHT22;45837;51.076;3.578;2023-04-29T00:27:00;20.40;54.20
59977;DHT22;45837;51.076;3.578;2023-04-29T00:29:27;20.40;54.20
59977;DHT22;45837;51.076;3.578;2023-04-29T00:31:53;20.40;54.20
59977;DHT22;45837;51.076;3.578;2023-04-29T00:34:18;20.40;54.30
59977;DHT22;45837;51.076;3.578;2023-04-29T00:36:44;20.40;54.20
59977;DHT22;45837;51.076;3.578;2023-04-29T00:39:10;20.40;54.40
59977;DHT22;45837;51.076;3.578;2023-04-29T00:41:38;20.40;54.10
59977;DHT22;45837;51.076;3.578;2023-04-29T00:44:03;20.40;54.50
59977;DHT22;45837;51.076;3.578;2023-04-29T00:46:29;20.40;54.30
59977;DHT22;45837;51.076;3.578;2023-04-29T00:48:55;21.10;54.70
59977;DHT22;45837;51.076;3.578;2023-04-29T00:51:21;20.40;54.50
59977;DHT22;45837;51.076;3.578;2023-04-29T00:53:47;20.40;53.90
59977;DHT22;45837;51.076;3.578;2023-04-29T00:56:13;20.30;54.70
59977;DHT22;45837;51.076;3.578;2023-04-29T00:58:40;20.40;54.10
59977;DHT22;45837;51.076;3.578;2023-04-29T01:01:10;20.40;53.80
59977;DHT22;45837;51.076;3.578;2023-04-29T01:03:35;20.30;54.30
59977;DHT22;45837;51.076;3.578;2023-04-29T01:06:05;20.30;54.40
59977;DHT22;45837;51.076;3.578;2023-04-29T01:08:49;20.30;53.70
59977;DHT22;45837;51.076;3.578;2023-04-29T01:11:18;20.30;53.60
59977;DHT22;45837;51.076;3.578;2023-04-29T01:13:57;20.30;53.90
59977;DHT22;45837;51.076;3.578;2023-04-29T01:16:29;20.30;53.60
59977;DHT22;45837;51.076;3.578;2023-04-29T01:19:01;20.30;53.60
59977;DHT22;45837;51.076;3.578;2023-04-29T01:21:31;20.30;53.80
59977;DHT22;45837;51.076;3.578;2023-04-29T01:23:57;20.30;54.20
59977;DHT22;45837;51.076;3.578;2023-04-29T01:26:26;20.30;54.10
59977;DHT22;45837;51.076;3.578;2023-04-29T01:29:12;20.30;53.80
59977;DHT22;45837;51.076;3.578;2023-04-29T01:31:48;20.30;53.70
59977;DHT22;45837;51.076;3.578;2023-04-29T01:34:18;20.30;53.60
59977;DHT22;45837;51.076;3.578;2023-04-29T01:39:25;20.30;54.40
59977;DHT22;45837;51.076;3.578;2023-04-29T01:44:41;20.20;53.70
59977;DHT22;45837;51.076;3.578;2023-04-29T01:47:09;20.20;53.90
59977;DHT22;45837;51.076;3.578;2023-04-29T01:49:42;20.20;53.60
59977;DHT22;45837;51.076;3.578;2023-04-29T01:52:08;20.30;54.00
59977;DHT22;45837;51.076;3.578;2023-04-29T01:54:35;20.20;54.00
59977;DHT22;45837;51.076;3.578;2023-04-29T01:57:02;20.20;54.20
59977;DHT22;45837;51.076;3.578;2023-04-29T02:00:06;20.20;53.70
59977;DHT22;45837;51.076;3.578;2023-04-29T02:02:40;20.20;53.70
59977;DHT22;45837;51.076;3.578;2023-04-29T02:05:26;20.20;53.90
59977;DHT22;45837;51.076;3.578;2023-04-29T02:07:56;20.20;53.80
59977;DHT22;45837;51.076;3.578;2023-04-29T02:10:23;20.20;54.10
59977;DHT22;45837;51.076;3.578;2023-04-29T02:12:54;20.20;54.20
59977;DHT22;45837;51.076;3.578;2023-04-29T02:15:20;20.20;54.10
59977;DHT22;45837;51.076;3.578;2023-04-29T02:17:45;20.20;54.80
59977;DHT22;45837;51.076;3.578;2023-04-29T02:20:11;20.20;53.90
59977;DHT22;45837;51.076;3.578;2023-04-29T02:22:37;20.20;54.00
59977;DHT22;45837;51.076;3.578;2023-04-29T02:25:03;20.20;53.90
59977;DHT22;45837;51.076;3.578;2023-04-29T02:27:30;20.20;53.90
59977;DHT22;45837;51.076;3.578;2023-04-29T02:29:56;20.10;54.00
59977;DHT22;45837;51.076;3.578;2023-04-29T02:32:23;20.20;54.00
59977;DHT22;45837;51.076;3.578;2023-04-29T02:34:49;20.10;54.10
59977;DHT22;45837;51.076;3.578;2023-04-29T02:37:16;20.20;54.00
59977;DHT22;45837;51.076;3.578;2023-04-29T02:39:41;20.10;54.10
59977;DHT22;45837;51.076;3.578;2023-04-29T02:42:07;20.10;54.10
59977;DHT22;45837;51.076;3.578;2023-04-29T02:44:35;20.10;53.90
59977;DHT22;45837;51.076;3.578;2023-04-29T02:47:00;20.10;54.10
59977;DHT22;45837;51.076;3.578;2023-04-29T02:49:26;20.10;54.30
59977;DHT22;45837;51.076;3.578;2023-04-29T02:51:52;20.10;54.00
59977;DHT22;45837;51.076;3.578;2023-04-29T02:54:19;20.10;54.00
59977;DHT22;45837;51.076;3.578;2023-04-29T02:56:45;20.10;54.00
59977;DHT22;45837;51.076;3.578;2023-04-29T02:59:11;20.10;54.30
59977;DHT22;45837;51.076;3.578;2023-04-29T03:01:36;20.10;54.10
59977;DHT22;45837;51.076;3.578;2023-04-29T03:04:04;20.10;53.60
59977;DHT22;45837;51.076;3.578;2023-04-29T03:06:30;20.10;53.60
59977;DHT22;45837;51.076;3.578;2023-04-29T03:08:57;20.10;54.10
59977;DHT22;45837;51.076;3.578;2023-04-29T03:11:22;20.00;54.00
59977;DHT22;45837;51.076;3.578;2023-04-29T03:13:51;20.00;53.40
59977;DHT22;45837;51.076;3.578;2023-04-29T03:16:17;20.00;53.80
59977;DHT22;45837;51.076;3.578;2023-04-29T03:18:43;20.00;54.10
59977;DHT22;45837;51.076;3.578;2023-04-29T03:21:09;20.00;53.70
59977;DHT22;45837;51.076;3.578;2023-04-29T03:23:35;20.00;53.90
59977;DHT22;45837;51.076;3.578;2023-04-29T03:26:03;20.00;53.70
59977;DHT22;45837;51.076;3.578;2023-04-29T03:28:28;20.00;53.90
59977;DHT22;45837;51.076;3.578;2023-04-29T03:30:54;20.00;54.00
59977;DHT22;45837;51.076;3.578;2023-04-29T03:33:21;20.00;53.70
59977;DHT22;45837;51.076;3.578;2023-04-29T03:35:48;20.00;53.90
59977;DHT22;45837;51.076;3.578;2023-04-29T03:38:29;20.00;54.00
59977;DHT22;45837;51.076;3.578;2023-04-29T03:40:55;20.00;54.50
59977;DHT22;45837;51.076;3.578;2023-04-29T03:43:21;20.10;53.80
59977;DHT22;45837;51.076;3.578;2023-04-29T03:45:47;20.00;53.80
59977;DHT22;45837;51.076;3.578;2023-04-29T03:48:16;20.00;53.80
59977;DHT22;45837;51.076;3.578;2023-04-29T03:50:42;20.00;53.60
59977;DHT22;45837;51.076;3.578;2023-04-29T03:53:08;20.00;53.60
59977;DHT22;45837;51.076;3.578;2023-04-29T03:55:34;20.00;53.80
59977;DHT22;45837;51.076;3.578;2023-04-29T03:58:00;20.00;54.10
59977;DHT22;45837;51.076;3.578;2023-04-29T04:00:26;20.00;53.70
59977;DHT22;45837;51.076;3.578;2023-04-29T04:02:56;20.00;53.60
59977;DHT22;45837;51.076;3.578;2023-04-29T04:05:22;20.00;53.30
59977;DHT22;45837;51.076;3.578;2023-04-29T04:07:53;19.90;53.50
59977;DHT22;45837;51.076;3.578;2023-04-29T04:10:37;19.90;53.40
59977;DHT22;45837;51.076;3.578;2023-04-29T04:13:36;20.00;53.60
59977;DHT22;45837;51.076;3.578;2023-04-29T04:16:02;19.90;53.50
59977;DHT22;45837;51.076;3.578;2023-04-29T04:18:29;19.90;53.70
59977;DHT22;45837;51.076;3.578;2023-04-29T04:20:55;19.90;53.90
59977;DHT22;45837;51.076;3.578;2023-04-29T04:23:23;19.90;53.90
59977;DHT22;45837;51.076;3.578;2023-04-29T04:25:50;19.90;53.40
59977;DHT22;45837;51.076;3.578;2023-04-29T04:28:50;19.90;53.40
59977;DHT22;45837;51.076;3.578;2023-04-29T04:31:24;19.90;53.60
59977;DHT22;45837;51.076;3.578;2023-04-29T04:33:50;19.90;53.80
59977;DHT22;45837;51.076;3.578;2023-04-29T04:36:16;19.90;53.50
59977;DHT22;45837;51.076;3.578;2023-04-29T04:38:42;19.90;53.60
59977;DHT22;45837;51.076;3.578;2023-04-29T04:41:10;19.90;53.50
59977;DHT22;45837;51.076;3.578;2023-04-29T04:43:37;19.90;53.60
59977;DHT22;45837;51.076;3.578;2023-04-29T04:46:11;19.90;53.30
59977;DHT22;45837;51.076;3.578;2023-04-29T04:48:41;19.90;53.20
59977;DHT22;45837;51.076;3.578;2023-04-29T04:51:09;19.90;53.10
59977;DHT22;45837;51.076;3.578;2023-04-29T04:53:36;19.90;53.20
59977;DHT22;45837;51.076;3.578;2023-04-29T04:56:06;19.90;53.30
59977;DHT22;45837;51.076;3.578;2023-04-29T04:58:32;19.90;53.30
59977;DHT22;45837;51.076;3.578;2023-04-29T05:00:59;19.90;53.50
59977;DHT22;45837;51.076;3.578;2023-04-29T05:03:25;19.90;53.20
59977;DHT22;45837;51.076;3.578;2023-04-29T05:05:56;19.90;53.40
59977;DHT22;45837;51.076;3.578;2023-04-29T05:08:22;19.80;52.90
59977;DHT22;45837;51.076;3.578;2023-04-29T05:10:50;19.80;53.00
59977;DHT22;45837;51.076;3.578;2023-04-29T05:13:16;19.80;53.30
59977;DHT22;45837;51.076;3.578;2023-04-29T05:15:42;19.80;53.00
59977;DHT22;45837;51.076;3.578;2023-04-29T05:18:09;19.80;53.30
59977;DHT22;45837;51.076;3.578;2023-04-29T05:20:35;19.80;53.40
59977;DHT22;45837;51.076;3.578;2023-04-29T05:23:01;19.80;53.20
59977;DHT22;45837;51.076;3.578;2023-04-29T05:25:29;19.80;53.00
59977;DHT22;45837;51.076;3.578;2023-04-29T05:27:56;19.80;53.20
59977;DHT22;45837;51.076;3.578;2023-04-29T05:30:24;19.80;53.80
59977;DHT22;45837;51.076;3.578;2023-04-29T05:32:49;19.80;53.10
59977;DHT22;45837;51.076;3.578;2023-04-29T05:35:17;19.80;53.30
59977;DHT22;45837;51.076;3.578;2023-04-29T05:37:44;19.80;53.40
59977;DHT22;45837;51.076;3.578;2023-04-29T05:40:30;19.80;53.20
59977;DHT22;45837;51.076;3.578;2023-04-29T05:43:14;19.80;53.70
59977;DHT22;45837;51.076;3.578;2023-04-29T05:45:39;19.80;53.50
59977;DHT22;45837;51.076;3.578;2023-04-29T05:48:05;19.80;53.50
59977;DHT22;45837;51.076;3.578;2023-04-29T05:50:31;19.80;53.50
59977;DHT22;45837;51.076;3.578;2023-04-29T05:52:57;19.80;53.60
59977;DHT22;45837;51.076;3.578;2023-04-29T05:55:24;19.80;53.40
59977;DHT22;45837;51.076;3.578;2023-04-29T05:57:50;19.80;53.10
59977;DHT22;45837;51.076;3.578;2023-04-29T06:00:16;19.80;53.70
59977;DHT22;45837;51.076;3.578;2023-04-29T06:02:43;19.80;53.90
59977;DHT22;45837;51.076;3.578;2023-04-29T06:05:11;19.80;53.60
59977;DHT22;45837;51.076;3.578;2023-04-29T06:07:44;19.80;54.00
59977;DHT22;45837;51.076;3.578;2023-04-29T06:10:30;19.90;54.30
59977;DHT22;45837;51.076;3.578;2023-04-29T06:12:56;19.90;54.50
59977;DHT22;45837;51.076;3.578;2023-04-29T06:15:22;19.90;54.90
59977;DHT22;45837;51.076;3.578;2023-04-29T06:17:48;19.90;54.90
59977;DHT22;45837;51.076;3.578;2023-04-29T06:20:13;19.90;55.00
59977;DHT22;45837;51.076;3.578;2023-04-29T06:22:39;20.00;55.30
59977;DHT22;45837;51.076;3.578;2023-04-29T06:25:05;20.00;55.20
59977;DHT22;45837;51.076;3.578;2023-04-29T06:27:44;20.10;55.40
59977;DHT22;45837;51.076;3.578;2023-04-29T06:30:10;20.10;55.90
59977;DHT22;45837;51.076;3.578;2023-04-29T06:32:37;20.20;55.70
59977;DHT22;45837;51.076;3.578;2023-04-29T06:35:04;20.20;55.30
59977;DHT22;45837;51.076;3.578;2023-04-29T06:37:42;20.20;55.50
59977;DHT22;45837;51.076;3.578;2023-04-29T06:40:20;20.30;55.60
59977;DHT22;45837;51.076;3.578;2023-04-29T06:43:18;20.40;55.90
59977;DHT22;45837;51.076;3.578;2023-04-29T06:45:46;20.50;55.60
59977;DHT22;45837;51.076;3.578;2023-04-29T06:48:31;20.60;54.90
59977;DHT22;45837;51.076;3.578;2023-04-29T06:50:57;20.70;55.00
59977;DHT22;45837;51.076;3.578;2023-04-29T06:53:23;20.70;54.90
59977;DHT22;45837;51.076;3.578;2023-04-29T06:55:49;20.80;54.50
59977;DHT22;45837;51.076;3.578;2023-04-29T06:58:15;20.90;54.90
59977;DHT22;45837;51.076;3.578;2023-04-29T07:00:45;20.90;54.60
59977;DHT22;45837;51.076;3.578;2023-04-29T07:03:11;20.90;54.20
59977;DHT22;45837;51.076;3.578;2023-04-29T07:05:37;20.90;54.10
59977;DHT22;45837;51.076;3.578;2023-04-29T07:08:07;20.90;53.60
59977;DHT22;45837;51.076;3.578;2023-04-29T07:10:33;20.90;53.70
59977;DHT22;45837;51.076;3.578;2023-04-29T07:12:59;21.00;53.90
59977;DHT22;45837;51.076;3.578;2023-04-29T07:15:25;21.00;53.60
59977;DHT22;45837;51.076;3.578;2023-04-29T07:17:52;20.90;53.00
59977;DHT22;45837;51.076;3.578;2023-04-29T07:20:18;21.00;53.30
59977;DHT22;45837;51.076;3.578;2023-04-29T07:22:44;21.00;52.70
59977;DHT22;45837;51.076;3.578;2023-04-29T07:25:09;21.00;52.60
59977;DHT22;45837;51.076;3.578;2023-04-29T07:27:35;21.00;52.80
59977;DHT22;45837;51.076;3.578;2023-04-29T07:30:02;21.00;52.10
59977;DHT22;45837;51.076;3.578;2023-04-29T07:32:28;21.00;51.90
59977;DHT22;45837;51.076;3.578;2023-04-29T07:34:56;21.00;51.90
59977;DHT22;45837;51.076;3.578;2023-04-29T07:37:22;21.00;51.20
59977;DHT22;45837;51.076;3.578;2023-04-29T07:39:48;21.00;51.80
59977;DHT22;45837;51.076;3.578;2023-04-29T07:42:14;20.90;51.70
59977;DHT22;45837;51.076;3.578;2023-04-29T07:44:40;20.90;52.00
59977;DHT22;45837;51.076;3.578;2023-04-29T07:47:07;20.80;51.80
59977;DHT22;45837;51.076;3.578;2023-04-29T07:49:33;20.80;51.50
59977;DHT22;45837;51.076;3.578;2023-04-29T07:52:00;20.80;51.30
59977;DHT22;45837;51.076;3.578;2023-04-29T07:54:26;20.80;51.00
59977;DHT22;45837;51.076;3.578;2023-04-29T07:56:52;20.80;51.30
59977;DHT22;45837;51.076;3.578;2023-04-29T07:59:19;20.80;51.30
59977;DHT22;45837;51.076;3.578;2023-04-29T08:01:45;20.80;51.30
59977;DHT22;45837;51.076;3.578;2023-04-29T08:04:11;20.80;49.60
59977;DHT22;45837;51.076;3.578;2023-04-29T08:06:46;20.70;49.60
59977;DHT22;45837;51.076;3.578;2023-04-29T08:09:13;20.70;49.90
59977;DHT22;45837;51.076;3.578;2023-04-29T08:11:40;20.70;50.30
59977;DHT22;45837;51.076;3.578;2023-04-29T08:14:06;20.70;49.70
59977;DHT22;45837;51.076;3.578;2023-04-29T08:16:33;20.70;50.10
59977;DHT22;45837;51.076;3.578;2023-04-29T08:18:59;20.60;49.80
59977;DHT22;45837;51.076;3.578;2023-04-29T08:21:25;20.70;50.30
59977;DHT22;45837;51.076;3.578;2023-04-29T08:23:52;20.60;50.20
59977;DHT22;45837;51.076;3.578;2023-04-29T08:26:18;20.60;49.90
59977;DHT22;45837;51.076;3.578;2023-04-29T08:28:43;20.60;50.20
59977;DHT22;45837;51.076;3.578;2023-04-29T08:31:19;20.60;51.00
59977;DHT22;45837;51.076;3.578;2023-04-29T08:33:45;20.60;49.70
59977;DHT22;45837;51.076;3.578;2023-04-29T08:36:11;20.60;50.10
59977;DHT22;45837;51.076;3.578;2023-04-29T08:38:37;20.60;50.40
59977;DHT22;45837;51.076;3.578;2023-04-29T08:41:02;20.60;50.10
59977;DHT22;45837;51.076;3.578;2023-04-29T08:43:28;20.60;50.50
59977;DHT22;45837;51.076;3.578;2023-04-29T08:45:55;20.60;49.90
59977;DHT22;45837;51.076;3.578;2023-04-29T08:48:22;20.50;50.30
59977;DHT22;45837;51.076;3.578;2023-04-29T08:50:48;20.50;49.90
59977;DHT22;45837;51.076;3.578;2023-04-29T08:53:14;20.50;50.40
59977;DHT22;45837;51.076;3.578;2023-04-29T08:55:41;20.50;50.00
59977;DHT22;45837;51.076;3.578;2023-04-29T08:58:07;20.50;49.80
59977;DHT22;45837;51.076;3.578;2023-04-29T09:00:33;20.50;49.90
59977;DHT22;45837;51.076;3.578;2023-04-29T09:02:59;20.50;49.90
59977;DHT22;45837;51.076;3.578;2023-04-29T09:05:29;20.40;50.00
59977;DHT22;45837;51.076;3.578;2023-04-29T09:07:55;20.40;51.10
59977;DHT22;45837;51.076;3.578;2023-04-29T09:10:21;20.40;49.90
59977;DHT22;45837;51.076;3.578;2023-04-29T09:12:47;20.40;50.10
59977;DHT22;45837;51.076;3.578;2023-04-29T09:15:13;20.40;50.20
59977;DHT22;45837;51.076;3.578;2023-04-29T09:17:39;20.40;50.30
59977;DHT22;45837;51.076;3.578;2023-04-29T09:22:47;20.40;49.20
59977;DHT22;45837;51.076;3.578;2023-04-29T09:25:13;20.50;49.40
59977;DHT22;45837;51.076;3.578;2023-04-29T09:27:39;20.40;50.20
59977;DHT22;45837;51.076;3.578;2023-04-29T09:30:05;20.40;50.20
59977;DHT22;45837;51.076;3.578;2023-04-29T09:32:31;20.40;50.20
59977;DHT22;45837;51.076;3.578;2023-04-29T09:34:57;20.40;51.00
59977;DHT22;45837;51.076;3.578;2023-04-29T09:37:23;20.40;51.40
59977;DHT22;45837;51.076;3.578;2023-04-29T09:39:50;20.40;51.20
59977;DHT22;45837;51.076;3.578;2023-04-29T09:42:16;20.40;51.60
59977;DHT22;45837;51.076;3.578;2023-04-29T09:44:42;20.50;52.20
59977;DHT22;45837;51.076;3.578;2023-04-29T09:47:08;20.50;52.00
59977;DHT22;45837;51.076;3.578;2023-04-29T09:49:41;20.60;52.10
59977;DHT22;45837;51.076;3.578;2023-04-29T09:52:08;20.60;51.90
59977;DHT22;45837;51.076;3.578;2023-04-29T09:54:34;20.70;52.20
59977;DHT22;45837;51.076;3.578;2023-04-29T09:57:03;20.80;52.20
59977;DHT22;45837;51.076;3.578;2023-04-29T09:59:32;20.80;52.00
59977;DHT22;45837;51.076;3.578;2023-04-29T10:02:06;20.90;52.00
59977;DHT22;45837;51.076;3.578;2023-04-29T10:04:34;21.00;52.00
59977;DHT22;45837;51.076;3.578;2023-04-29T10:06:59;18.50;50.70
59977;DHT22;45837;51.076;3.578;2023-04-29T10:09:26;21.10;52.00
59977;DHT22;45837;51.076;3.578;2023-04-29T10:11:52;21.20;51.80
59977;DHT22;45837;51.076;3.578;2023-04-29T10:14:19;21.30;51.70
59977;DHT22;45837;51.076;3.578;2023-04-29T10:16:48;21.30;51.90
59977;DHT22;45837;51.076;3.578;2023-04-29T10:19:23;21.30;51.80
59977;DHT22;45837;51.076;3.578;2023-04-29T10:21:50;21.30;52.00
59977;DHT22;45837;51.076;3.578;2023-04-29T10:24:18;21.30;52.10
59977;DHT22;45837;51.076;3.578;2023-04-29T10:26:44;21.30;52.20
59977;DHT22;45837;51.076;3.578;2023-04-29T10:29:12;21.30;53.00
59977;DHT22;45837;51.076;3.578;2023-04-29T10:31:39;21.30;52.50
59977;DHT22;45837;51.076;3.578;2023-04-29T10:34:05;21.30;52.40
59977;DHT22;45837;51.076;3.578;2023-04-29T10:36:31;21.30;52.50
59977;DHT22;45837;51.076;3.578;2023-04-29T10:38:58;21.30;52.10
59977;DHT22;45837;51.076;3.578;2023-04-29T10:41:25;21.30;52.10
59977;DHT22;45837;51.076;3.578;2023-04-29T10:43:53;21.40;52.20
59977;DHT22;45837;51.076;3.578;2023-04-29T10:46:20;21.30;52.10
59977;DHT22;45837;51.076;3.578;2023-04-29T10:48:47;21.30;52.10
59977;DHT22;45837;51.076;3.578;2023-04-29T10:51:16;21.30;52.20
59977;DHT22;45837;51.076;3.578;2023-04-29T10:56:37;21.30;52.10
59977;DHT22;45837;51.076;3.578;2023-04-29T10:59:03;21.30;52.00
59977;DHT22;45837;51.076;3.578;2023-04-29T11:02:02;21.30;52.10
59977;DHT22;45837;51.076;3.578;2023-04-29T11:04:21;21.30;51.40
59977;DHT22;45837;51.076;3.578;2023-04-29T11:06:50;21.30;51.40
59977;DHT22;45837;51.076;3.578;2023-04-29T11:09:20;21.30;51.40
59977;DHT22;45837;51.076;3.578;2023-04-29T11:17:04;21.30;51.30
59977;DHT22;45837;51.076;3.578;2023-04-29T11:19:30;21.30;51.00
59977;DHT22;45837;51.076;3.578;2023-04-29T11:22:02;21.30;50.60
59977;DHT22;45837;51.076;3.578;2023-04-29T11:24:28;21.30;50.40
59977;DHT22;45837;51.076;3.578;2023-04-29T11:26:57;21.30;50.50
59977;DHT22;45837;51.076;3.578;2023-04-29T11:29:29;21.30;50.30
59977;DHT22;45837;51.076;3.578;2023-04-29T11:31:59;21.40;50.20
59977;DHT22;45837;51.076;3.578;2023-04-29T11:34:24;21.30;50.00
59977;DHT22;45837;51.076;3.578;2023-04-29T11:36:50;21.30;50.40
59977;DHT22;45837;51.076;3.578;2023-04-29T11:39:16;21.30;50.20
59977;DHT22;45837;51.076;3.578;2023-04-29T11:41:42;21.30;50.50
59977;DHT22;45837;51.076;3.578;2023-04-29T11:44:08;21.30;50.40
59977;DHT22;45837;51.076;3.578;2023-04-29T11:46:34;21.30;50.30
59977;DHT22;45837;51.076;3.578;2023-04-29T11:49:00;21.30;50.30
59977;DHT22;45837;51.076;3.578;2023-04-29T11:51:26;21.30;50.40
59977;DHT22;45837;51.076;3.578;2023-04-29T11:53:53;21.30;49.90
59977;DHT22;45837;51.076;3.578;2023-04-29T11:56:21;21.30;50.50
59977;DHT22;45837;51.076;3.578;2023-04-29T11:58:53;21.20;49.80
59977;DHT22;45837;51.076;3.578;2023-04-29T12:01:21;21.20;49.80
59977;DHT22;45837;51.076;3.578;2023-04-29T12:03:49;21.20;50.00
59977;DHT22;45837;51.076;3.578;2023-04-29T12:06:15;21.20;49.90
59977;DHT22;45837;51.076;3.578;2023-04-29T12:08:41;21.20;50.40
59977;DHT22;45837;51.076;3.578;2023-04-29T12:11:06;21.20;50.30
59977;DHT22;45837;51.076;3.578;2023-04-29T12:13:32;21.20;50.40
59977;DHT22;45837;51.076;3.578;2023-04-29T12:16:00;21.20;49.80
59977;DHT22;45837;51.076;3.578;2023-04-29T12:18:26;21.20;50.20
59977;DHT22;45837;51.076;3.578;2023-04-29T12:20:53;21.10;49.70
59977;DHT22;45837;51.076;3.578;2023-04-29T12:23:22;21.10;49.60
59977;DHT22;45837;51.076;3.578;2023-04-29T12:25:49;21.10;49.70
59977;DHT22;45837;51.076;3.578;2023-04-29T12:28:15;21.10;49.60
59977;DHT22;45837;51.076;3.578;2023-04-29T12:30:48;21.10;49.80
59977;DHT22;45837;51.076;3.578;2023-04-29T12:33:20;21.10;49.60
59977;DHT22;45837;51.076;3.578;2023-04-29T12:35:47;21.00;49.60
59977;DHT22;45837;51.076;3.578;2023-04-29T12:38:20;21.10;49.70
59977;DHT22;45837;51.076;3.578;2023-04-29T12:40:46;21.00;49.50
59977;DHT22;45837;51.076;3.578;2023-04-29T12:43:12;21.00;49.90
59977;DHT22;45837;51.076;3.578;2023-04-29T12:45:38;21.00;49.90
59977;DHT22;45837;51.076;3.578;2023-04-29T12:48:04;21.00;49.60
59977;DHT22;45837;51.076;3.578;2023-04-29T12:50:30;21.00;50.10
59977;DHT22;45837;51.076;3.578;2023-04-29T12:52:57;21.00;49.70
59977;DHT22;45837;51.076;3.578;2023-04-29T12:55:23;21.00;49.90
59977;DHT22;45837;51.076;3.578;2023-04-29T12:57:49;21.00;49.70
59977;DHT22;45837;51.076;3.578;2023-04-29T13:00:15;21.00;49.90
59977;DHT22;45837;51.076;3.578;2023-04-29T13:02:41;21.00;50.20
59977;DHT22;45837;51.076;3.578;2023-04-29T13:05:06;21.00;50.60
59977;DHT22;45837;51.076;3.578;2023-04-29T13:07:32;21.00;49.70
59977;DHT22;45837;51.076;3.578;2023-04-29T13:09:58;20.90;49.80
59977;DHT22;45837;51.076;3.578;2023-04-29T13:12:23;20.90;49.40
59977;DHT22;45837;51.076;3.578;2023-04-29T13:14:49;20.90;49.40
59977;DHT22;45837;51.076;3.578;2023-04-29T13:17:15;20.90;48.80
59977;DHT22;45837;51.076;3.578;2023-04-29T13:19:41;20.80;48.80
59977;DHT22;45837;51.076;3.578;2023-04-29T13:22:08;20.80;48.50
59977;DHT22;45837;51.076;3.578;2023-04-29T13:24:34;20.80;48.40
59977;DHT22;45837;51.076;3.578;2023-04-29T13:27:01;20.80;48.10
59977;DHT22;45837;51.076;3.578;2023-04-29T13:29:28;20.80;47.70
59977;DHT22;45837;51.076;3.578;2023-04-29T13:31:54;20.80;48.10
59977;DHT22;45837;51.076;3.578;2023-04-29T13:34:20;20.80;47.80
59977;DHT22;45837;51.076;3.578;2023-04-29T13:36:46;20.80;48.40
59977;DHT22;45837;51.076;3.578;2023-04-29T13:39:11;20.90;48.70
59977;DHT22;45837;51.076;3.578;2023-04-29T13:41:37;20.90;48.40
59977;DHT22;45837;51.076;3.578;2023-04-29T13:44:03;20.80;48.70
59977;DHT22;45837;51.076;3.578;2023-04-29T13:46:29;20.80;48.30
59977;DHT22;45837;51.076;3.578;2023-04-29T13:48:57;20.80;48.70
59977;DHT22;45837;51.076;3.578;2023-04-29T13:51:22;20.80;49.20
59977;DHT22;45837;51.076;3.578;2023-04-29T13:53:48;20.80;49.40
59977;DHT22;45837;51.076;3.578;2023-04-29T13:56:14;20.90;49.20
59977;DHT22;45837;51.076;3.578;2023-04-29T13:58:40;20.80;48.60
59977;DHT22;45837;51.076;3.578;2023-04-29T14:01:07;20.80;48.80
59977;DHT22;45837;51.076;3.578;2023-04-29T14:03:32;20.80;49.00
59977;DHT22;45837;51.076;3.578;2023-04-29T14:05:58;20.90;49.50
59977;DHT22;45837;51.076;3.578;2023-04-29T14:08:24;20.90;49.80
59977;DHT22;45837;51.076;3.578;2023-04-29T14:10:49;20.90;50.30
59977;DHT22;45837;51.076;3.578;2023-04-29T14:13:15;20.80;50.10
59977;DHT22;45837;51.076;3.578;2023-04-29T14:15:42;20.80;50.00
59977;DHT22;45837;51.076;3.578;2023-04-29T14:18:08;20.80;50.10
59977;DHT22;45837;51.076;3.578;2023-04-29T14:20:35;20.90;50.30
59977;DHT22;45837;51.076;3.578;2023-04-29T14:23:00;20.90;50.50
59977;DHT22;45837;51.076;3.578;2023-04-29T14:25:26;20.90;50.60
59977;DHT22;45837;51.076;3.578;2023-04-29T14:27:52;20.90;50.90
59977;DHT22;45837;51.076;3.578;2023-04-29T14:30:17;20.90;51.10
59977;DHT22;45837;51.076;3.578;2023-04-29T14:32:43;20.90;52.00
59977;DHT22;45837;51.076;3.578;2023-04-29T14:35:09;20.90;51.40
59977;DHT22;45837;51.076;3.578;2023-04-29T14:37:35;20.90;51.30
59977;DHT22;45837;51.076;3.578;2023-04-29T14:40:01;20.90;51.10
59977;DHT22;45837;51.076;3.578;2023-04-29T14:42:26;20.90;50.90
59977;DHT22;45837;51.076;3.578;2023-04-29T14:44:52;20.90;51.30
59977;DHT22;45837;51.076;3.578;2023-04-29T14:47:18;20.90;51.00
59977;DHT22;45837;51.076;3.578;2023-04-29T14:49:44;20.90;51.20
59977;DHT22;45837;51.076;3.578;2023-04-29T14:52:10;20.90;50.90
59977;DHT22;45837;51.076;3.578;2023-04-29T14:54:36;20.90;51.20
59977;DHT22;45837;51.076;3.578;2023-04-29T14:57:01;20.90;51.60
59977;DHT22;45837;51.076;3.578;2023-04-29T14:59:27;20.90;52.00
59977;DHT22;45837;51.076;3.578;2023-04-29T15:01:54;20.90;51.30
59977;DHT22;45837;51.076;3.578;2023-04-29T15:04:20;20.90;51.60
59977;DHT22;45837;51.076;3.578;2023-04-29T15:06:47;20.90;53.00
59977;DHT22;45837;51.076;3.578;2023-04-29T15:09:13;20.90;54.50
59977;DHT22;45837;51.076;3.578;2023-04-29T15:11:38;21.00;54.60
59977;DHT22;45837;51.076;3.578;2023-04-29T15:14:04;20.90;54.90
59977;DHT22;45837;51.076;3.578;2023-04-29T15:16:33;20.90;54.30
59977;DHT22;45837;51.076;3.578;2023-04-29T15:19:02;20.90;54.50
59977;DHT22;45837;51.076;3.578;2023-04-29T15:21:28;20.90;55.60
59977;DHT22;45837;51.076;3.578;2023-04-29T15:23:54;20.90;55.20
59977;DHT22;45837;51.076;3.578;2023-04-29T15:26:20;20.90;55.80
59977;DHT22;45837;51.076;3.578;2023-04-29T15:28:46;20.90;56.30
59977;DHT22;45837;51.076;3.578;2023-04-29T15:31:11;21.00;58.20
59977;DHT22;45837;51.076;3.578;2023-04-29T15:33:37;21.00;57.60
59977;DHT22;45837;51.076;3.578;2023-04-29T15:36:03;21.00;58.10
59977;DHT22;45837;51.076;3.578;2023-04-29T15:38:29;21.10;57.20
59977;DHT22;45837;51.076;3.578;2023-04-29T15:40:56;21.10;57.30
59977;DHT22;45837;51.076;3.578;2023-04-29T15:43:28;21.10;57.20
59977;DHT22;45837;51.076;3.578;2023-04-29T15:45:54;21.20;57.40
59977;DHT22;45837;51.076;3.578;2023-04-29T15:48:20;21.10;57.60